Time;durP1;ratioP1;P1;durP2;ratioP2;P2;SDS_P1;SDS_P2;PMS_P1;PMS_P2;Temp;Humidity;BMP_temperature;BMP_pressure;BME280_temperature;BME280_humidity;BME280_pressure;Samples;Min_cycle;Max_cycle;Signal;HPM_P1;HPM_P2
2021/09/03 00:00:43;;;;;;;36.38;20.73;;;;;;;;;;5007110;28;20206;-73
2021/09/03 00:03:09;;;;;;;41.55;22.02;;;;;;;;;;4998209;28;20225;-72
2021/09/03 00:05:35;;;;;;;35.85;19.60;;;;;;;;;;5005836;28;20194;-71
2021/09/03 00:08:01;;;;;;;41.45;20.13;;;;;;;;;;4997171;28;20610;-72
2021/09/03 00:10:26;;;;;;;44.13;21.45;;;;;;;;;;5005325;28;20759;-72
2021/09/03 00:12:52;;;;;;;37.67;21.40;;;;;;;;;;4996319;28;20203;-72
2021/09/03 00:15:17;;;;;;;39.58;20.92;;;;;;;;;;5006026;28;20174;-72
2021/09/03 00:17:43;;;;;;;37.45;20.60;;;;;;;;;;5003513;28;20737;-72
2021/09/03 00:20:11;;;;;;;40.58;22.50;;;;;;;;;;5010493;28;20564;-75
2021/09/03 00:22:37;;;;;;;40.05;22.27;;;;;;;;;;5001030;28;20214;-72
2021/09/03 00:25:03;;;;;;;41.70;21.00;;;;;;;;;;5009800;28;20198;-72
2021/09/03 00:27:28;;;;;;;34.13;19.75;;;;;;;;;;4993703;28;20701;-71
2021/09/03 00:29:54;;;;;;;34.05;19.77;;;;;;;;;;5010583;28;20183;-71
2021/09/03 00:32:19;;;;;;;43.20;20.77;;;;;;;;;;5004318;28;20244;-72
2021/09/03 00:34:44;;;;;;;44.42;22.65;;;;;;;;;;5004265;28;20194;-72
2021/09/03 00:37:10;;;;;;;41.55;21.63;;;;;;;;;;5009912;28;20195;-72
2021/09/03 00:39:35;;;;;;;40.25;21.23;;;;;;;;;;5002192;28;20196;-72
2021/09/03 00:42:00;;;;;;;37.88;19.55;;;;;;;;;;5010365;28;20203;-72
2021/09/03 00:44:26;;;;;;;36.80;20.67;;;;;;;;;;5002654;28;20269;-72
2021/09/03 00:46:51;;;;;;;39.63;21.83;;;;;;;;;;5008628;28;20712;-72
2021/09/03 00:49:17;;;;;;;44.78;22.55;;;;;;;;;;5002687;28;20677;-72
2021/09/03 00:51:43;;;;;;;46.03;23.65;;;;;;;;;;5009751;28;20762;-72
2021/09/03 00:54:09;;;;;;;49.50;23.27;;;;;;;;;;4999469;28;20245;-72
2021/09/03 00:56:35;;;;;;;40.40;23.77;;;;;;;;;;5005514;28;20191;-72
2021/09/03 00:59:00;;;;;;;44.58;23.30;;;;;;;;;;5003574;28;20565;-72
2021/09/03 01:01:25;;;;;;;38.95;22.17;;;;;;;;;;5009575;28;20713;-72
2021/09/03 01:03:51;;;;;;;42.30;22.92;;;;;;;;;;5014575;28;20234;-72
2021/09/03 01:06:16;;;;;;;33.28;19.75;;;;;;;;;;4999940;28;20547;-72
2021/09/03 01:08:42;;;;;;;35.70;20.50;;;;;;;;;;5005805;28;20546;-72
2021/09/03 01:11:07;;;;;;;34.83;19.38;;;;;;;;;;5001810;28;20191;-72
2021/09/03 01:13:33;;;;;;;40.72;21.60;;;;;;;;;;5014184;28;20598;-72
2021/09/03 01:15:58;;;;;;;33.15;19.63;;;;;;;;;;5001250;28;20202;-72
2021/09/03 01:18:23;;;;;;;33.88;19.75;;;;;;;;;;5009011;28;20194;-72
2021/09/03 01:20:49;;;;;;;33.22;18.92;;;;;;;;;;4998248;28;20341;-72
2021/09/03 01:23:14;;;;;;;34.17;20.27;;;;;;;;;;5008908;28;20627;-73
2021/09/03 01:25:40;;;;;;;36.95;19.67;;;;;;;;;;4998707;28;20190;-71
2021/09/03 01:28:06;;;;;;;32.33;19.17;;;;;;;;;;5009554;28;20540;-72
2021/09/03 01:30:32;;;;;;;37.10;21.25;;;;;;;;;;4999813;28;20641;-72
2021/09/03 01:32:58;;;;;;;40.10;22.33;;;;;;;;;;5010325;28;20206;-72
2021/09/03 01:35:23;;;;;;;40.70;22.05;;;;;;;;;;5007748;28;20639;-72
2021/09/03 01:37:48;;;;;;;38.80;21.45;;;;;;;;;;5001790;28;20210;-72
2021/09/03 01:40:14;;;;;;;37.28;22.08;;;;;;;;;;5008597;28;20194;-72
2021/09/03 01:42:40;;;;;;;40.25;21.33;;;;;;;;;;4999941;28;20210;-72
2021/09/03 01:45:05;;;;;;;37.35;20.60;;;;;;;;;;5008437;28;20182;-72
2021/09/03 01:47:31;;;;;;;37.60;19.98;;;;;;;;;;5000435;28;20202;-72
2021/09/03 01:49:56;;;;;;;33.15;19.77;;;;;;;;;;5006320;28;20187;-72
2021/09/03 01:52:22;;;;;;;34.70;19.95;;;;;;;;;;4998632;28;20289;-72
2021/09/03 01:54:48;;;;;;;36.55;18.88;;;;;;;;;;5006964;28;20214;-72
2021/09/03 01:57:13;;;;;;;35.90;19.63;;;;;;;;;;5000132;28;20698;-72
2021/09/03 01:59:39;;;;;;;30.95;19.00;;;;;;;;;;5008451;28;20213;-72
2021/09/03 02:02:04;;;;;;;32.70;19.02;;;;;;;;;;5000603;28;20310;-72
2021/09/03 02:04:30;;;;;;;39.47;20.40;;;;;;;;;;5004148;28;20237;-72
2021/09/03 02:06:55;;;;;;;33.22;19.52;;;;;;;;;;5007871;28;20183;-72
2021/09/03 02:09:20;;;;;;;38.72;20.95;;;;;;;;;;4995292;28;20302;-72
2021/09/03 02:11:46;;;;;;;45.70;23.25;;;;;;;;;;5009080;28;20187;-72
2021/09/03 02:14:11;;;;;;;45.72;23.52;;;;;;;;;;4999256;28;20384;-72
2021/09/03 02:16:36;;;;;;;43.05;22.42;;;;;;;;;;5008932;28;20214;-72
2021/09/03 02:19:02;;;;;;;42.58;23.73;;;;;;;;;;4996863;28;20190;-72
2021/09/03 02:21:27;;;;;;;45.28;23.08;;;;;;;;;;5007661;28;20267;-72
2021/09/03 02:23:53;;;;;;;55.10;25.05;;;;;;;;;;4996929;28;20553;-72
2021/09/03 02:26:18;;;;;;;50.30;24.95;;;;;;;;;;5007870;28;20190;-71
2021/09/03 02:28:44;;;;;;;57.90;27.17;;;;;;;;;;4994229;28;20194;-72
2021/09/03 02:31:10;;;;;;;49.72;25.77;;;;;;;;;;5008703;28;20193;-72
2021/09/03 02:33:35;;;;;;;53.17;26.77;;;;;;;;;;4996950;28;20643;-72
2021/09/03 02:36:01;;;;;;;62.42;28.20;;;;;;;;;;5009620;28;20213;-72
2021/09/03 02:38:26;;;;;;;61.35;29.48;;;;;;;;;;5001391;28;20210;-72
2021/09/03 02:40:52;;;;;;;54.67;28.00;;;;;;;;;;4998002;28;20210;-72
2021/09/03 02:43:17;;;;;;;63.17;27.73;;;;;;;;;;5006817;28;20245;-72
2021/09/03 02:45:42;;;;;;;65.13;29.70;;;;;;;;;;5001418;28;20272;-72
2021/09/03 02:48:08;;;;;;;61.83;27.70;;;;;;;;;;5004549;28;20277;-72
2021/09/03 02:50:33;;;;;;;57.70;27.73;;;;;;;;;;4999773;28;20222;-72
2021/09/03 02:52:59;;;;;;;58.28;26.23;;;;;;;;;;5005635;28;20220;-71
2021/09/03 02:55:26;;;;;;;61.45;27.45;;;;;;;;;;5000344;28;20191;-71
2021/09/03 02:57:51;;;;;;;62.65;28.17;;;;;;;;;;5005212;28;20271;-71
2021/09/03 03:00:17;;;;;;;58.53;27.83;;;;;;;;;;5001148;28;20191;-71
2021/09/03 03:02:42;;;;;;;60.10;27.90;;;;;;;;;;5005658;28;20265;-71
2021/09/03 03:05:08;;;;;;;53.13;26.17;;;;;;;;;;5001602;28;20190;-71
2021/09/03 03:07:33;;;;;;;61.42;28.60;;;;;;;;;;5003181;28;20209;-71
2021/09/03 03:09:59;;;;;;;53.72;26.80;;;;;;;;;;5005869;28;20229;-72
2021/09/03 03:12:24;;;;;;;54.67;26.73;;;;;;;;;;4998732;28;20592;-71
2021/09/03 03:14:50;;;;;;;56.70;28.02;;;;;;;;;;5009710;28;20175;-71
2021/09/03 03:17:17;;;;;;;61.97;28.83;;;;;;;;;;4995804;28;20278;-71
2021/09/03 03:19:43;;;;;;;51.92;27.35;;;;;;;;;;5008792;28;20186;-71
2021/09/03 03:22:08;;;;;;;56.55;27.65;;;;;;;;;;4999339;28;20535;-71
2021/09/03 03:24:33;;;;;;;57.95;27.13;;;;;;;;;;5008244;28;20205;-71
2021/09/03 03:26:59;;;;;;;59.45;26.88;;;;;;;;;;4999179;28;20201;-72
2021/09/03 03:29:25;;;;;;;55.67;25.92;;;;;;;;;;5004906;28;20183;-72
2021/09/03 03:31:50;;;;;;;58.72;26.52;;;;;;;;;;4994418;28;20190;-71
2021/09/03 03:34:15;;;;;;;54.55;28.80;;;;;;;;;;5008391;28;20317;-71
2021/09/03 03:36:41;;;;;;;54.65;26.55;;;;;;;;;;4996344;28;20309;-72
2021/09/03 03:39:07;;;;;;;58.03;28.48;;;;;;;;;;5003778;28;20198;-71
2021/09/03 03:41:33;;;;;;;62.60;27.10;;;;;;;;;;5004028;28;20699;-71
2021/09/03 03:43:58;;;;;;;51.72;25.98;;;;;;;;;;4999968;28;20597;-71
2021/09/03 03:46:24;;;;;;;52.30;25.45;;;;;;;;;;5004127;28;20194;-71
2021/09/03 03:48:49;;;;;;;55.10;26.38;;;;;;;;;;4998980;28;20198;-71
2021/09/03 03:51:15;;;;;;;55.92;25.30;;;;;;;;;;5004026;28;20188;-71
2021/09/03 03:53:41;;;;;;;51.63;24.67;;;;;;;;;;5000384;28;20197;-71
2021/09/03 03:56:06;;;;;;;48.22;24.00;;;;;;;;;;5002569;28;20198;-71
2021/09/03 03:58:31;;;;;;;41.28;23.38;;;;;;;;;;5001839;28;20203;-72
2021/09/03 04:00:57;;;;;;;52.08;25.73;;;;;;;;;;5002294;28;20259;-71
2021/09/03 04:03:22;;;;;;;41.83;23.63;;;;;;;;;;4997875;28;20686;-71
2021/09/03 04:05:47;;;;;;;55.58;22.92;;;;;;;;;;5003591;28;20661;-71
2021/09/03 04:08:13;;;;;;;46.13;24.38;;;;;;;;;;4998611;28;20183;-72
2021/09/03 04:10:38;;;;;;;46.70;23.25;;;;;;;;;;5005640;28;20191;-72
2021/09/03 04:13:03;;;;;;;42.85;23.60;;;;;;;;;;5008323;28;20189;-72
2021/09/03 04:15:29;;;;;;;39.50;21.40;;;;;;;;;;4998317;28;20930;-72
2021/09/03 04:17:54;;;;;;;37.55;21.77;;;;;;;;;;5005618;28;20182;-72
2021/09/03 04:20:19;;;;;;;41.95;21.35;;;;;;;;;;4995208;28;20269;-72
2021/09/03 04:22:45;;;;;;;37.58;21.60;;;;;;;;;;5008407;28;20305;-72
2021/09/03 04:25:11;;;;;;;38.75;20.15;;;;;;;;;;4996976;28;20195;-72
2021/09/03 04:27:37;;;;;;;39.35;20.98;;;;;;;;;;5001857;28;20183;-72
2021/09/03 04:30:04;;;;;;;39.67;20.15;;;;;;;;;;4996941;28;20195;-71
2021/09/03 04:32:29;;;;;;;40.20;20.73;;;;;;;;;;5006975;28;20191;-71
2021/09/03 04:34:54;;;;;;;37.15;19.63;;;;;;;;;;4995699;28;20187;-72
2021/09/03 04:37:20;;;;;;;33.65;18.80;;;;;;;;;;5007268;28;20186;-72
2021/09/03 04:39:45;;;;;;;36.35;19.48;;;;;;;;;;4995994;28;20198;-72
2021/09/03 04:42:11;;;;;;;38.63;20.10;;;;;;;;;;5004890;28;20194;-72
2021/09/03 04:44:36;;;;;;;44.53;20.45;;;;;;;;;;5004004;28;20651;-72
2021/09/03 04:47:02;;;;;;;33.47;19.83;;;;;;;;;;4998889;28;20205;-72
2021/09/03 04:49:28;;;;;;;37.70;20.10;;;;;;;;;;5003431;28;20240;-72
2021/09/03 04:51:53;;;;;;;36.63;20.05;;;;;;;;;;4999687;28;20282;-71
2021/09/03 04:54:18;;;;;;;36.50;19.90;;;;;;;;;;5002587;28;20326;-71
2021/09/03 04:56:44;;;;;;;37.75;20.13;;;;;;;;;;5000377;28;20348;-71
2021/09/03 04:59:09;;;;;;;34.13;19.33;;;;;;;;;;5003243;28;20306;-71
2021/09/03 05:01:34;;;;;;;33.20;19.70;;;;;;;;;;4998935;28;20674;-71
2021/09/03 05:04:00;;;;;;;39.90;21.27;;;;;;;;;;5009494;28;20226;-71
2021/09/03 05:06:26;;;;;;;42.28;20.73;;;;;;;;;;5002200;28;20183;-71
2021/09/03 05:08:51;;;;;;;37.17;20.13;;;;;;;;;;5006663;28;20234;-71
2021/09/03 05:11:16;;;;;;;34.65;19.77;;;;;;;;;;4998574;28;20186;-71
2021/09/03 05:13:42;;;;;;;38.85;20.58;;;;;;;;;;4999967;28;20279;-71
2021/09/03 05:16:07;;;;;;;42.42;22.55;;;;;;;;;;5004558;28;20659;-71
2021/09/03 05:18:33;;;;;;;37.30;20.60;;;;;;;;;;4996265;28;20557;-71
2021/09/03 05:20:58;;;;;;;44.40;22.38;;;;;;;;;;5008433;28;20613;-71
2021/09/03 05:23:24;;;;;;;38.25;21.67;;;;;;;;;;4996390;28;20195;-72
2021/09/03 05:25:49;;;;;;;45.47;23.17;;;;;;;;;;5009714;28;20195;-71
2021/09/03 05:28:15;;;;;;;45.05;23.25;;;;;;;;;;4997512;28;20300;-72
2021/09/03 05:30:40;;;;;;;58.80;24.23;;;;;;;;;;5007735;28;20190;-71
2021/09/03 05:33:05;;;;;;;45.20;24.95;;;;;;;;;;4999526;28;20190;-71
2021/09/03 05:35:31;;;;;;;46.60;25.25;;;;;;;;;;5011443;28;20183;-71
2021/09/03 05:37:57;;;;;;;65.85;30.00;;;;;;;;;;5002565;28;20186;-71
2021/09/03 05:40:22;;;;;;;58.60;30.55;;;;;;;;;;5010240;28;20368;-71
2021/09/03 05:42:49;;;;;;;58.13;30.73;;;;;;;;;;4998854;28;20286;-72
2021/09/03 05:45:14;;;;;;;63.50;30.77;;;;;;;;;;5004293;28;20205;-71
2021/09/03 05:47:44;;;;;;;61.85;29.63;;;;;;;;;;5005636;28;20206;-71
2021/09/03 05:50:10;;;;;;;57.55;29.55;;;;;;;;;;5000272;28;20202;-71
2021/09/03 05:52:36;;;;;;;68.40;31.58;;;;;;;;;;5009358;28;20183;-71
2021/09/03 05:55:02;;;;;;;66.10;31.05;;;;;;;;;;5001426;28;20853;-71
2021/09/03 05:57:27;;;;;;;66.70;33.25;;;;;;;;;;5008876;28;20186;-71
2021/09/03 05:59:52;;;;;;;66.20;32.00;;;;;;;;;;5000608;28;20183;-71
2021/09/03 06:02:18;;;;;;;63.45;31.98;;;;;;;;;;5008058;28;20235;-71
2021/09/03 06:04:43;;;;;;;55.72;26.92;;;;;;;;;;4997977;28;20662;-71
2021/09/03 06:07:08;;;;;;;64.40;30.58;;;;;;;;;;5007026;28;20190;-71
2021/09/03 06:09:34;;;;;;;65.90;30.00;;;;;;;;;;4998785;28;20190;-71
2021/09/03 06:11:59;;;;;;;57.80;29.08;;;;;;;;;;5011030;28;20187;-71
2021/09/03 06:14:24;;;;;;;53.97;28.77;;;;;;;;;;4995707;28;20194;-72
2021/09/03 06:16:50;;;;;;;57.60;30.17;;;;;;;;;;5002867;28;20202;-71
2021/09/03 06:19:15;;;;;;;58.45;30.92;;;;;;;;;;5007781;28;20214;-71
2021/09/03 06:21:41;;;;;;;58.97;29.48;;;;;;;;;;4996617;28;20219;-71
2021/09/03 06:24:48;;;;;;;59.05;29.73;;;;;;;;;;5006547;28;20758;-71
2021/09/03 06:27:15;;;;;;;63.05;30.65;;;;;;;;;;4993892;28;20294;-71
2021/09/03 06:29:43;;;;;;;61.53;30.25;;;;;;;;;;5003546;28;20214;-71
2021/09/03 06:32:20;;;;;;;57.53;29.45;;;;;;;;;;4996245;28;20182;-71
2021/09/03 06:34:48;;;;;;;68.57;33.03;;;;;;;;;;5004714;28;20209;-71
2021/09/03 06:37:13;;;;;;;61.17;31.58;;;;;;;;;;4996457;28;20277;-71
2021/09/03 06:39:39;;;;;;;56.97;31.35;;;;;;;;;;5008107;28;20316;-71
2021/09/03 06:42:06;;;;;;;60.72;31.35;;;;;;;;;;4999114;28;20682;-71
2021/09/03 06:44:32;;;;;;;54.97;29.83;;;;;;;;;;5003867;28;20693;-71
2021/09/03 06:46:57;;;;;;;51.97;30.27;;;;;;;;;;4994356;28;20190;-71
2021/09/03 06:49:23;;;;;;;61.85;32.75;;;;;;;;;;5003315;28;20198;-71
2021/09/03 06:51:48;;;;;;;61.03;32.00;;;;;;;;;;5000454;28;20205;-71
2021/09/03 06:54:14;;;;;;;56.13;30.73;;;;;;;;;;5006386;28;20655;-71
2021/09/03 06:56:39;;;;;;;55.13;31.40;;;;;;;;;;4998731;28;20218;-71
2021/09/03 06:59:04;;;;;;;55.28;30.70;;;;;;;;;;5007486;28;20568;-71
2021/09/03 07:01:30;;;;;;;60.78;32.75;;;;;;;;;;5006421;28;20369;-71
2021/09/03 07:03:55;;;;;;;58.17;30.85;;;;;;;;;;4995843;28;20226;-71
2021/09/03 07:06:21;;;;;;;54.63;30.38;;;;;;;;;;4999976;28;20221;-71
2021/09/03 07:08:46;;;;;;;52.65;30.48;;;;;;;;;;4997553;28;20289;-71
2021/09/03 07:11:11;;;;;;;56.67;30.17;;;;;;;;;;5004044;28;20178;-71
2021/09/03 07:13:37;;;;;;;56.85;31.73;;;;;;;;;;4995066;28;20281;-71
2021/09/03 07:16:03;;;;;;;50.80;29.48;;;;;;;;;;5007735;28;20246;-71
2021/09/03 07:18:28;;;;;;;55.35;30.00;;;;;;;;;;4994494;28;20551;-71
2021/09/03 07:20:54;;;;;;;59.33;30.73;;;;;;;;;;5005327;28;20210;-71
2021/09/03 07:23:19;;;;;;;58.47;29.30;;;;;;;;;;4996538;28;20681;-70
2021/09/03 07:25:44;;;;;;;53.80;29.05;;;;;;;;;;5005086;28;20276;-70
2021/09/03 07:28:10;;;;;;;42.13;27.30;;;;;;;;;;4994762;28;20213;-70
2021/09/03 07:30:35;;;;;;;51.10;28.23;;;;;;;;;;5003499;28;20382;-71
2021/09/03 07:33:00;;;;;;;46.95;27.63;;;;;;;;;;5001341;28;20583;-70
2021/09/03 07:35:26;;;;;;;44.90;27.55;;;;;;;;;;4999552;28;20194;-70
2021/09/03 07:37:51;;;;;;;48.28;26.77;;;;;;;;;;5007671;28;20190;-69
2021/09/03 07:40:17;;;;;;;53.55;26.67;;;;;;;;;;4997335;28;20541;-70
2021/09/03 07:42:43;;;;;;;47.60;26.80;;;;;;;;;;5006008;28;20212;-70
2021/09/03 07:45:09;;;;;;;42.28;25.83;;;;;;;;;;4998411;28;20183;-71
2021/09/03 07:47:34;;;;;;;40.38;24.17;;;;;;;;;;5006505;28;20190;-70
2021/09/03 07:49:59;;;;;;;43.80;24.88;;;;;;;;;;4998495;28;20212;-70
2021/09/03 07:52:25;;;;;;;45.65;25.15;;;;;;;;;;5004423;28;20195;-70
2021/09/03 07:54:50;;;;;;;41.67;24.83;;;;;;;;;;4998408;28;20527;-71
2021/09/03 07:57:15;;;;;;;43.97;24.05;;;;;;;;;;5005248;28;20187;-70
2021/09/03 07:59:41;;;;;;;40.65;22.65;;;;;;;;;;5000626;28;20191;-71
2021/09/03 08:02:06;;;;;;;41.65;23.42;;;;;;;;;;5002594;28;20237;-70
2021/09/03 08:04:31;;;;;;;41.65;22.75;;;;;;;;;;5006564;28;20201;-70
2021/09/03 08:06:57;;;;;;;39.40;22.77;;;;;;;;;;5000032;28;20646;-70
2021/09/03 08:09:23;;;;;;;35.63;22.73;;;;;;;;;;5008298;28;20189;-70
2021/09/03 08:11:49;;;;;;;38.13;22.35;;;;;;;;;;5001516;28;20183;-70
2021/09/03 08:14:15;;;;;;;42.80;22.88;;;;;;;;;;5007516;28;20191;-73
2021/09/03 08:16:40;;;;;;;33.95;21.35;;;;;;;;;;4999493;28;20182;-69
2021/09/03 08:19:06;;;;;;;35.00;21.67;;;;;;;;;;5007768;28;20229;-71
2021/09/03 08:21:31;;;;;;;39.30;21.63;;;;;;;;;;5000507;28;20264;-70
2021/09/03 08:23:57;;;;;;;39.45;22.42;;;;;;;;;;5006832;28;20186;-70
2021/09/03 08:26:22;;;;;;;34.30;20.98;;;;;;;;;;4996317;28;20266;-69
2021/09/03 08:28:48;;;;;;;36.92;20.83;;;;;;;;;;5007661;28;20187;-69
2021/09/03 08:31:13;;;;;;;33.08;19.05;;;;;;;;;;4999919;28;20179;-69
2021/09/03 08:33:38;;;;;;;35.10;20.58;;;;;;;;;;5002981;28;20179;-70
2021/09/03 08:36:04;;;;;;;28.08;18.85;;;;;;;;;;5009000;28;20554;-70
2021/09/03 08:38:29;;;;;;;29.98;18.98;;;;;;;;;;4998641;28;20199;-70
2021/09/03 08:40:59;;;;;;;33.08;18.63;;;;;;;;;;5005778;28;20203;-69
2021/09/03 08:43:26;;;;;;;36.72;19.20;;;;;;;;;;4998399;28;20206;-69
2021/09/03 08:45:52;;;;;;;37.05;19.52;;;;;;;;;;5006505;28;20248;-70
2021/09/03 08:48:23;;;;;;;28.17;18.02;;;;;;;;;;4999832;28;20190;-70
2021/09/03 08:50:50;;;;;;;30.75;18.13;;;;;;;;;;5007005;28;20183;-72
2021/09/03 08:53:18;;;;;;;32.72;17.60;;;;;;;;;;5000059;28;20274;-70
2021/09/03 08:55:46;;;;;;;31.50;17.88;;;;;;;;;;5006118;28;20187;-69
2021/09/03 08:58:11;;;;;;;31.17;17.15;;;;;;;;;;4996456;28;20218;-69
2021/09/03 09:00:37;;;;;;;25.45;16.58;;;;;;;;;;5006316;28;20191;-70
2021/09/03 09:03:06;;;;;;;26.80;16.35;;;;;;;;;;5000970;28;20223;-71
2021/09/03 09:05:43;;;;;;;33.30;17.92;;;;;;;;;;5006472;28;20430;-71
2021/09/03 09:08:09;;;;;;;29.83;16.65;;;;;;;;;;5003059;28;20669;-70
2021/09/03 09:10:34;;;;;;;28.73;17.15;;;;;;;;;;5004211;28;20191;-71
2021/09/03 09:13:00;;;;;;;27.50;16.77;;;;;;;;;;5008235;28;20228;-70
2021/09/03 09:15:26;;;;;;;27.08;16.05;;;;;;;;;;4999923;28;20186;-70
2021/09/03 09:17:52;;;;;;;29.67;16.90;;;;;;;;;;5009784;28;20281;-69
2021/09/03 09:20:17;;;;;;;28.73;16.00;;;;;;;;;;4998497;28;20550;-69
2021/09/03 09:22:51;;;;;;;30.27;17.27;;;;;;;;;;5009507;28;20206;-71
2021/09/03 09:25:22;;;;;;;29.63;17.33;;;;;;;;;;4999203;28;20191;-70
2021/09/03 09:27:48;;;;;;;28.83;15.38;;;;;;;;;;5010326;28;20214;-71
2021/09/03 09:30:26;;;;;;;29.27;16.55;;;;;;;;;;4998986;28;20264;-69
2021/09/03 09:33:16;;;;;;;33.30;16.30;;;;;;;;;;5005828;28;20182;-71
2021/09/03 09:35:44;;;;;;;26.80;15.10;;;;;;;;;;5000510;28;20256;-71
2021/09/03 09:38:09;;;;;;;27.25;15.98;;;;;;;;;;5008124;28;20539;-70
2021/09/03 09:40:48;;;;;;;28.55;16.63;;;;;;;;;;4999500;28;20190;-70
2021/09/03 09:43:39;;;;;;;27.58;16.95;;;;;;;;;;5005991;28;20194;-70
2021/09/03 09:46:18;;;;;;;27.27;15.48;;;;;;;;;;4999038;28;20198;-70
2021/09/03 09:48:50;;;;;;;28.95;15.57;;;;;;;;;;5004185;28;20321;-71
2021/09/03 09:51:33;;;;;;;25.30;15.73;;;;;;;;;;5015818;28;20201;-71
2021/09/03 09:54:16;;;;;;;30.50;16.52;;;;;;;;;;5006655;28;20205;-70
2021/09/03 09:56:44;;;;;;;29.60;15.93;;;;;;;;;;4998729;28;20332;-68
2021/09/03 09:59:11;;;;;;;29.63;15.90;;;;;;;;;;5007160;28;20199;-70
2021/09/03 10:01:38;;;;;;;25.90;16.52;;;;;;;;;;4999086;28;20665;-71
2021/09/03 10:04:09;;;;;;;25.55;17.02;;;;;;;;;;5007250;28;20234;-70
2021/09/03 10:06:37;;;;;;;25.95;16.52;;;;;;;;;;4999841;28;20230;-70
2021/09/03 10:09:06;;;;;;;26.80;15.55;;;;;;;;;;5008969;28;20175;-72
2021/09/03 10:11:32;;;;;;;28.95;15.05;;;;;;;;;;4998110;28;20596;-72
2021/09/03 10:13:58;;;;;;;29.85;15.82;;;;;;;;;;5004322;28;20215;-71
2021/09/03 10:16:23;;;;;;;27.65;16.42;;;;;;;;;;5006941;28;20236;-70
2021/09/03 10:18:54;;;;;;;27.83;16.20;;;;;;;;;;4997775;28;20550;-71
2021/09/03 10:21:22;;;;;;;24.33;15.68;;;;;;;;;;5006939;28;20210;-70
2021/09/03 10:24:11;;;;;;;27.13;16.48;;;;;;;;;;4998640;28;20187;-72
2021/09/03 10:26:48;;;;;;;28.10;16.08;;;;;;;;;;5002265;28;20195;-69
2021/09/03 10:29:30;;;;;;;26.33;16.83;;;;;;;;;;4998833;28;20600;-70
2021/09/03 10:32:07;;;;;;;22.02;13.93;;;;;;;;;;5009694;28;20191;-72
2021/09/03 10:34:42;;;;;;;28.45;14.82;;;;;;;;;;5017125;28;20191;-72
2021/09/03 10:37:13;;;;;;;27.60;15.77;;;;;;;;;;5006143;28;20186;-72
2021/09/03 10:39:49;;;;;;;28.40;16.17;;;;;;;;;;4992263;28;20598;-70
2021/09/03 10:45:01;;;;;;;24.08;15.40;;;;;;;;;;5000335;28;20201;-72
2021/09/03 10:47:35;;;;;;;27.73;15.02;;;;;;;;;;5005356;28;20194;-73
2021/09/03 10:50:34;;;;;;;26.98;15.05;;;;;;;;;;5000162;28;20194;-67
2021/09/03 10:53:03;;;;;;;22.35;14.45;;;;;;;;;;5006415;28;20175;-70
2021/09/03 10:55:52;;;;;;;25.30;14.95;;;;;;;;;;4996591;28;20301;-72
2021/09/03 10:58:36;;;;;;;28.05;16.10;;;;;;;;;;5002990;28;20615;-71
2021/09/03 11:01:13;;;;;;;24.02;14.73;;;;;;;;;;4996339;28;20221;-70
2021/09/03 11:03:50;;;;;;;27.98;15.65;;;;;;;;;;5007662;28;20230;-74
2021/09/03 11:06:25;;;;;;;26.17;15.60;;;;;;;;;;4996252;28;20692;-71
2021/09/03 11:08:59;;;;;;;26.85;15.45;;;;;;;;;;5007511;28;20194;-73
2021/09/03 11:11:36;;;;;;;22.52;15.40;;;;;;;;;;4998096;28;20613;-74
2021/09/03 11:14:17;;;;;;;26.63;16.45;;;;;;;;;;5009395;28;20202;-71
2021/09/03 11:16:54;;;;;;;31.58;15.32;;;;;;;;;;4999020;28;20256;-73
2021/09/03 11:19:28;;;;;;;29.42;15.95;;;;;;;;;;5006602;28;20189;-72
2021/09/03 11:21:59;;;;;;;23.73;15.30;;;;;;;;;;4997482;28;20206;-71
2021/09/03 11:24:27;;;;;;;24.17;15.45;;;;;;;;;;5008022;28;20253;-69
2021/09/03 11:26:55;;;;;;;27.88;14.77;;;;;;;;;;4999108;28;20187;-72
2021/09/03 11:29:22;;;;;;;22.88;14.55;;;;;;;;;;5004850;28;20800;-74
2021/09/03 11:32:08;;;;;;;25.48;15.00;;;;;;;;;;4997354;28;20197;-73
2021/09/03 11:34:40;;;;;;;34.60;15.93;;;;;;;;;;5004169;28;20191;-71
2021/09/03 11:37:05;;;;;;;25.08;15.75;;;;;;;;;;5000818;28;20316;-73
2021/09/03 11:39:33;;;;;;;25.00;15.27;;;;;;;;;;5006843;28;20269;-72
2021/09/03 11:41:59;;;;;;;27.95;14.70;;;;;;;;;;4999014;28;20288;-72
2021/09/03 11:44:24;;;;;;;24.05;14.48;;;;;;;;;;5005611;28;20222;-73
2021/09/03 11:46:50;;;;;;;25.65;14.27;;;;;;;;;;4999690;28;20225;-74
2021/09/03 11:49:21;;;;;;;27.38;14.55;;;;;;;;;;5003966;28;20188;-72
2021/09/03 11:51:46;;;;;;;27.38;15.43;;;;;;;;;;4997325;28;20624;-74
2021/09/03 11:54:15;;;;;;;30.70;15.60;;;;;;;;;;5005931;28;20186;-69
2021/09/03 11:56:40;;;;;;;25.83;15.48;;;;;;;;;;5001511;28;20206;-73
2021/09/03 11:59:07;;;;;;;25.58;14.68;;;;;;;;;;5003275;28;20230;-74
2021/09/03 12:01:34;;;;;;;24.05;14.63;;;;;;;;;;5003932;28;20215;-76
2021/09/03 12:04:07;;;;;;;23.30;14.05;;;;;;;;;;4996271;28;20560;-70
2021/09/03 12:06:33;;;;;;;24.10;14.77;;;;;;;;;;5006999;28;20207;-73
2021/09/03 12:08:59;;;;;;;23.15;14.30;;;;;;;;;;4997166;28;20190;-71
2021/09/03 12:11:33;;;;;;;25.38;13.63;;;;;;;;;;5010895;28;20650;-72
2021/09/03 12:13:59;;;;;;;21.38;13.45;;;;;;;;;;5001567;28;20190;-74
2021/09/03 12:16:27;;;;;;;22.58;12.85;;;;;;;;;;5011147;28;20209;-72
2021/09/03 12:18:54;;;;;;;21.85;13.23;;;;;;;;;;5000759;28;20187;-71
2021/09/03 12:21:29;;;;;;;21.17;13.57;;;;;;;;;;5011003;28;20214;-74
2021/09/03 12:23:59;;;;;;;20.20;13.48;;;;;;;;;;4999031;28;20878;-73
2021/09/03 12:26:54;;;;;;;20.40;12.60;;;;;;;;;;5008520;28;20243;-71
2021/09/03 12:29:21;;;;;;;21.63;12.65;;;;;;;;;;5001442;28;20293;-70
2021/09/03 12:31:58;;;;;;;23.38;13.07;;;;;;;;;;5009484;28;20191;-70
2021/09/03 12:34:25;;;;;;;19.60;13.07;;;;;;;;;;4998364;28;20195;-72
2021/09/03 12:36:58;;;;;;;18.00;11.65;;;;;;;;;;5007893;28;20199;-72
2021/09/03 12:39:23;;;;;;;19.40;11.85;;;;;;;;;;5002207;28;20190;-71
2021/09/03 12:41:49;;;;;;;21.83;12.40;;;;;;;;;;5010566;28;20203;-69
2021/09/03 12:44:29;;;;;;;19.90;11.18;;;;;;;;;;5001265;28;20225;-72
2021/09/03 12:46:58;;;;;;;21.48;12.48;;;;;;;;;;5008114;28;20650;-73
2021/09/03 12:49:28;;;;;;;21.58;12.35;;;;;;;;;;5000239;28;20194;-71
2021/09/03 12:52:02;;;;;;;20.63;12.57;;;;;;;;;;5006610;28;20290;-71
2021/09/03 12:54:28;;;;;;;21.45;12.27;;;;;;;;;;4998723;28;20174;-72
2021/09/03 12:56:54;;;;;;;20.80;12.48;;;;;;;;;;5009111;28;20195;-73
2021/09/03 12:59:21;;;;;;;20.85;12.23;;;;;;;;;;5017225;28;20230;-72
2021/09/03 13:01:47;;;;;;;17.02;11.48;;;;;;;;;;4995439;28;20232;-73
2021/09/03 13:04:15;;;;;;;21.63;11.90;;;;;;;;;;5009059;28;20318;-71
2021/09/03 13:06:45;;;;;;;23.70;13.38;;;;;;;;;;4995932;28;20260;-71
2021/09/03 13:09:10;;;;;;;21.80;12.00;;;;;;;;;;5011724;28;20209;-70
2021/09/03 13:11:36;;;;;;;18.70;11.43;;;;;;;;;;4999790;28;20659;-71
2021/09/03 13:14:01;;;;;;;20.70;12.00;;;;;;;;;;5006755;28;20180;-72
2021/09/03 13:16:33;;;;;;;16.70;12.07;;;;;;;;;;4995748;28;20714;-70
2021/09/03 13:18:58;;;;;;;17.75;11.55;;;;;;;;;;5007418;28;20222;-73
2021/09/03 13:21:24;;;;;;;23.08;12.82;;;;;;;;;;4995414;28;20210;-75
2021/09/03 13:23:49;;;;;;;21.75;11.85;;;;;;;;;;5000962;28;21792;-74
2021/09/03 13:26:14;;;;;;;17.63;11.80;;;;;;;;;;4993410;28;20724;-72
2021/09/03 13:28:40;;;;;;;19.50;10.93;;;;;;;;;;5003300;28;20670;-73
2021/09/03 13:31:05;;;;;;;19.52;11.77;;;;;;;;;;4999862;28;20194;-72
2021/09/03 13:33:30;;;;;;;20.92;12.18;;;;;;;;;;4992275;28;20204;-69
2021/09/03 13:35:56;;;;;;;20.45;11.38;;;;;;;;;;5002024;28;20190;-70
2021/09/03 13:38:21;;;;;;;21.05;11.05;;;;;;;;;;4998784;28;20241;-72
2021/09/03 13:40:47;;;;;;;20.88;12.27;;;;;;;;;;5000859;28;20197;-72
2021/09/03 13:43:12;;;;;;;20.20;10.88;;;;;;;;;;4997165;28;20994;-72
2021/09/03 13:45:38;;;;;;;18.13;10.73;;;;;;;;;;5008690;28;20197;-72
2021/09/03 13:48:07;;;;;;;17.35;11.10;;;;;;;;;;5000176;28;20605;-69
2021/09/03 13:50:37;;;;;;;21.25;11.80;;;;;;;;;;5007438;28;20285;-70
2021/09/03 13:53:03;;;;;;;19.30;11.98;;;;;;;;;;5001867;28;20206;-71
2021/09/03 13:55:29;;;;;;;24.02;12.18;;;;;;;;;;5006228;28;20194;-70
2021/09/03 13:57:54;;;;;;;21.27;11.50;;;;;;;;;;4999605;28;23541;-71
2021/09/03 14:00:20;;;;;;;23.85;13.20;;;;;;;;;;5004503;28;20183;-71
2021/09/03 14:02:46;;;;;;;20.90;13.00;;;;;;;;;;5005070;28;20720;-71
2021/09/03 14:05:11;;;;;;;22.27;12.93;;;;;;;;;;4995073;28;20190;-71
2021/09/03 14:07:36;;;;;;;26.52;11.98;;;;;;;;;;5009502;28;20669;-68
2021/09/03 14:10:02;;;;;;;20.23;11.70;;;;;;;;;;4997038;28;20241;-70
2021/09/03 14:12:28;;;;;;;22.58;11.38;;;;;;;;;;5005202;28;20191;-70
2021/09/03 14:14:53;;;;;;;17.80;10.25;;;;;;;;;;4996684;28;20187;-68
2021/09/03 14:17:19;;;;;;;21.02;10.52;;;;;;;;;;5008588;28;20193;-70
2021/09/03 14:19:45;;;;;;;24.02;11.82;;;;;;;;;;4996423;28;20198;-71